Time;durP1;ratioP1;P1;durP2;ratioP2;P2;SDS_P1;SDS_P2;PMS_P1;PMS_P2;Temp;Humidity;BMP_temperature;BMP_pressure;BME280_temperature;BME280_humidity;BME280_pressure;Samples;Min_cycle;Max_cycle;Signal;HPM_P1;HPM_P2
2022/12/02 06:25:02;;;;;;;;;56.25;41.75;;;;;8.26;62.39;101676.66;6256342;22;45586;-47
2022/12/02 06:27:28;;;;;;;;;56.50;41.50;;;;;8.23;62.39;101677.50;6340248;22;45354;-50
2022/12/02 06:30:03;;;;;;;;;56.00;41.75;;;;;8.27;62.31;101686.25;6341581;22;45300;-46
2022/12/02 06:32:42;;;;;;;;;53.50;42.75;;;;;8.23;62.15;101672.25;6341160;22;45284;-47
2022/12/02 06:35:25;;;;;;;;;52.50;43.00;;;;;8.27;62.44;101674.03;6333796;22;45239;-48
2022/12/02 06:37:55;;;;;;;;;56.00;41.50;;;;;8.28;62.58;101677.53;6309764;22;45294;-50
2022/12/02 06:40:30;;;;;;;;;55.75;43.75;;;;;8.27;62.52;101679.25;6309472;22;45331;-50
2022/12/02 06:43:01;;;;;;;;;55.75;42.50;;;;;8.27;62.45;101681.88;6309552;22;45267;-46
2022/12/02 06:45:31;;;;;;;;;53.25;42.75;;;;;8.28;62.68;101685.41;6309958;22;45169;-46
2022/12/02 06:48:02;;;;;;;;;56.25;43.25;;;;;8.28;62.43;101674.94;6310113;22;45519;-49
2022/12/02 06:50:44;;;;;;;;;54.25;41.00;;;;;8.25;62.50;101669.63;6309883;22;46124;-49
2022/12/02 06:53:29;;;;;;;;;52.00;40.75;;;;;8.28;62.28;101675.78;6309924;22;45158;-47
2022/12/02 06:56:03;;;;;;;;;56.25;44.00;;;;;8.26;62.53;101663.53;6308093;22;45229;-50
2022/12/02 06:58:32;;;;;;;;;56.50;42.75;;;;;8.27;62.48;101657.44;6309760;22;45371;-51
2022/12/02 07:01:06;;;;;;;;;53.25;42.00;;;;;8.28;62.43;101656.59;6308010;22;46984;-53
2022/12/02 07:03:35;;;;;;;;;57.50;44.75;;;;;8.27;62.27;101660.06;6308168;22;45269;-48
2022/12/02 07:06:23;;;;;;;;;63.00;46.25;;;;;8.27;62.48;101658.31;6307803;22;45409;-51
2022/12/02 07:08:50;;;;;;;;;52.25;41.75;;;;;8.27;62.44;101671.41;6309895;22;45331;-48
2022/12/02 07:11:49;;;;;;;;;68.75;54.00;;;;;8.27;62.48;101674.03;6307382;22;45310;-48
2022/12/02 07:14:18;;;;;;;;;61.00;46.50;;;;;8.28;62.53;101674.94;6309358;22;45334;-50
2022/12/02 07:16:44;;;;;;;;;57.75;45.75;;;;;8.21;62.43;101663.50;6310171;22;45185;-50
2022/12/02 07:19:15;;;;;;;;;56.75;43.25;;;;;8.26;62.37;101664.44;6309709;22;45418;-47
2022/12/02 07:21:41;;;;;;;;;57.00;43.50;;;;;8.30;62.56;101662.72;6309594;22;46228;-48
2022/12/02 07:24:12;;;;;;;;;60.25;44.00;;;;;8.31;62.62;101672.31;6308879;22;45282;-51
2022/12/02 07:26:38;;;;;;;;;56.75;42.75;;;;;8.27;62.63;101658.31;6308742;22;45221;-49
2022/12/02 07:29:04;;;;;;;;;61.25;46.25;;;;;8.31;62.41;101669.69;6309816;22;52731;-47
2022/12/02 07:31:30;;;;;;;;;53.50;39.50;;;;;8.29;63.02;101660.97;6309725;22;46944;-50
2022/12/02 07:33:55;;;;;;;;;66.25;48.00;;;;;8.32;62.67;101675.84;6307694;22;45392;-47
2022/12/02 07:36:21;;;;;;;;;60.75;44.50;;;;;8.30;62.64;101670.56;6309510;22;45354;-47
2022/12/02 07:38:46;;;;;;;;;55.50;45.00;;;;;8.30;62.82;101666.22;6310060;22;45429;-46
2022/12/02 07:41:14;;;;;;;;;60.75;45.25;;;;;8.29;62.72;101658.34;6309710;22;46193;-49
2022/12/02 07:43:40;;;;;;;;;62.00;45.75;;;;;8.29;62.90;101660.97;6310131;22;45154;-47
2022/12/02 07:46:05;;;;;;;;;52.00;41.25;;;;;8.29;62.76;101660.97;6310511;22;45435;-46
2022/12/02 07:48:30;;;;;;;;;60.00;45.50;;;;;8.32;62.79;101662.75;6310175;22;45241;-47
2022/12/02 07:50:56;;;;;;;;;61.75;47.25;;;;;8.30;62.52;101657.47;6309726;22;45281;-48
2022/12/02 07:53:21;;;;;;;;;62.25;48.00;;;;;8.30;62.94;101666.22;6310102;22;45220;-47
2022/12/02 07:55:47;;;;;;;;;64.00;47.25;;;;;8.30;62.81;101668.84;6310051;22;45215;-47
2022/12/02 07:58:12;;;;;;;;;60.50;45.50;;;;;8.30;62.79;101663.59;6310055;22;45266;-46
2022/12/02 08:00:37;;;;;;;;;60.50;46.00;;;;;8.26;62.86;101661.81;6309904;22;46429;-53
2022/12/02 08:03:03;;;;;;;;;58.75;46.25;;;;;8.29;62.83;101674.06;6310028;22;45085;-48
2022/12/02 08:05:28;;;;;;;;;57.75;46.50;;;;;8.29;62.78;101669.69;6309941;22;45171;-47
2022/12/02 08:07:54;;;;;;;;;55.75;44.25;;;;;8.29;62.96;101671.44;6307467;22;45384;-46
2022/12/02 08:10:20;;;;;;;;;54.00;43.50;;;;;8.26;62.86;101659.22;6307556;22;45604;-46
2022/12/02 08:12:46;;;;;;;;;58.50;43.75;;;;;8.28;62.91;101667.06;6307919;22;45225;-46
2022/12/02 08:15:13;;;;;;;;;60.25;49.00;;;;;8.28;63.03;101667.94;6309733;22;45197;-46
2022/12/02 08:17:38;;;;;;;;;58.75;46.75;;;;;8.28;62.81;101662.69;6309782;22;45393;-46
2022/12/02 08:20:07;;;;;;;;;61.50;44.25;;;;;8.28;62.85;101656.59;6309629;22;46028;-46
2022/12/02 08:22:32;;;;;;;;;62.25;47.50;;;;;8.28;62.73;101647.00;6309457;22;45184;-47
2022/12/02 08:24:58;;;;;;;;;52.50;40.50;;;;;8.28;62.82;101644.38;6309822;22;45256;-46
2022/12/02 08:27:23;;;;;;;;;64.50;48.00;;;;;8.28;63.03;101649.59;6309679;22;45149;-47
2022/12/02 08:29:49;;;;;;;;;58.50;44.75;;;;;8.26;62.97;101658.31;6309637;22;46024;-48
2022/12/02 08:32:16;;;;;;;;;62.75;46.00;;;;;8.27;62.78;101660.94;6309409;22;45228;-47
2022/12/02 08:34:41;;;;;;;;;59.50;45.75;;;;;8.29;62.87;101674.06;6307637;22;45242;-46
2022/12/02 08:37:07;;;;;;;;;61.75;49.00;;;;;8.28;63.01;101675.78;6309852;22;45427;-49
2022/12/02 08:39:32;;;;;;;;;60.25;44.75;;;;;8.29;62.94;101671.44;6309899;22;45383;-47
2022/12/02 08:41:57;;;;;;;;;60.00;47.25;;;;;8.27;62.95;101667.94;6309599;22;45270;-52
2022/12/02 08:44:23;;;;;;;;;61.25;47.75;;;;;8.27;63.06;101676.66;6309957;22;45247;-47
2022/12/02 08:46:48;;;;;;;;;54.50;44.00;;;;;8.29;62.96;101681.94;6309619;22;45512;-48
2022/12/02 08:49:14;;;;;;;;;68.50;50.25;;;;;8.27;62.87;101662.69;6309404;22;45263;-47
2022/12/02 08:51:39;;;;;;;;;57.00;42.25;;;;;8.29;63.05;101666.22;6308621;22;45174;-51
2022/12/02 08:54:04;;;;;;;;;57.00;45.50;;;;;8.28;62.94;101656.59;6307792;22;45327;-47
2022/12/02 08:56:30;;;;;;;;;57.75;44.75;;;;;8.29;62.93;101664.47;6309036;22;45370;-47
2022/12/02 08:58:57;;;;;;;;;65.00;47.50;;;;;8.26;63.05;101653.06;6309477;22;45846;-51
2022/12/02 09:01:22;;;;;;;;;55.50;43.25;;;;;8.29;62.69;101667.06;6309494;22;45211;-47
2022/12/02 09:03:47;;;;;;;;;60.25;48.50;;;;;8.29;62.95;101663.59;6309064;22;45154;-48
2022/12/02 09:06:13;;;;;;;;;65.25;48.25;;;;;8.26;63.15;101650.44;6309136;22;45387;-46
2022/12/02 09:08:38;;;;;;;;;63.50;47.50;;;;;8.30;62.81;101644.38;6309112;22;46932;-48
2022/12/02 09:11:04;;;;;;;;;61.00;48.50;;;;;8.27;62.80;101639.13;6309247;22;45156;-51
2022/12/02 09:13:29;;;;;;;;;62.50;49.25;;;;;8.30;63.15;101649.63;6309588;22;45199;-48
2022/12/02 09:15:54;;;;;;;;;64.75;48.00;;;;;8.29;63.15;101651.38;6309389;22;47379;-49
2022/12/02 09:18:20;;;;;;;;;60.75;46.50;;;;;8.32;62.80;101654.88;6307403;22;46600;-49
2022/12/02 09:20:45;;;;;;;;;57.00;44.00;;;;;8.27;62.76;101646.97;6309188;22;45264;-50
2022/12/02 09:23:10;;;;;;;;;55.75;44.25;;;;;8.30;62.97;101653.13;6334056;22;45297;-51
2022/12/02 09:25:35;;;;;;;;;73.50;54.00;;;;;8.32;63.16;101644.41;6308198;22;45378;-50
2022/12/02 09:28:01;;;;;;;;;58.75;46.25;;;;;8.30;62.98;101641.75;6309126;22;46221;-51
2022/12/02 09:30:26;;;;;;;;;61.25;46.50;;;;;8.34;63.08;101647.91;6308173;22;45305;-45
2022/12/02 09:32:51;;;;;;;;;61.50;47.75;;;;;8.34;63.00;101646.19;6309481;22;45269;-46
2022/12/02 09:35:17;;;;;;;;;62.50;46.75;;;;;8.34;63.00;101640.94;6306544;22;45847;-47
2022/12/02 09:37:42;;;;;;;;;63.75;49.75;;;;;8.34;63.04;101642.66;6307366;22;46027;-47
2022/12/02 09:40:08;;;;;;;;;61.75;47.75;;;;;8.35;62.96;101640.09;6308317;22;45235;-49
2022/12/02 09:42:34;;;;;;;;;62.75;49.25;;;;;8.36;63.23;101638.34;6309153;22;45408;-50
2022/12/02 09:45:00;;;;;;;;;65.25;49.75;;;;;8.36;63.10;101644.44;6309014;22;45243;-47
2022/12/02 09:47:28;;;;;;;;;65.25;48.25;;;;;8.35;63.11;101640.09;6308392;22;45181;-47
2022/12/02 09:49:54;;;;;;;;;60.25;44.00;;;;;8.36;63.17;101639.19;6308423;22;45104;-48
2022/12/02 09:52:26;;;;;;;;;66.75;50.25;;;;;8.28;63.22;101617.31;6309161;22;45303;-49
2022/12/02 09:55:00;;;;;;;;;66.50;49.00;;;;;8.37;62.92;101633.09;6308401;22;45456;-46
2022/12/02 09:57:30;;;;;;;;;58.50;43.75;;;;;8.37;62.81;101633.09;6308269;22;46935;-49
2022/12/02 10:00:03;;;;;;;;;60.00;45.25;;;;;8.37;62.85;101640.97;6309838;22;45285;-46
2022/12/02 10:02:39;;;;;;;;;67.50;49.00;;;;;8.38;62.97;101634.84;6310608;22;45229;-48
2022/12/02 10:05:16;;;;;;;;;64.25;49.50;;;;;8.38;63.02;101634.84;6309560;22;45255;-50
2022/12/02 10:07:43;;;;;;;;;61.75;47.50;;;;;8.39;62.92;101628.75;6310561;22;45330;-47
2022/12/02 10:10:14;;;;;;;;;65.25;50.00;;;;;8.39;63.03;101628.75;6310448;22;45192;-46
2022/12/02 10:12:39;;;;;;;;;67.00;49.50;;;;;8.39;62.78;101628.75;6310594;22;45242;-45
2022/12/02 10:15:05;;;;;;;;;68.75;52.00;;;;;8.39;62.78;101615.66;6310258;22;45413;-46
2022/12/02 10:17:31;;;;;;;;;62.50;46.00;;;;;8.41;63.06;101613.06;6309881;22;46380;-48
2022/12/02 10:19:56;;;;;;;;;67.75;51.75;;;;;8.41;62.95;101608.69;6310284;22;45323;-47
2022/12/02 10:22:22;;;;;;;;;64.00;49.75;;;;;8.42;62.74;101609.56;6310646;22;45249;-46
2022/12/02 10:24:47;;;;;;;;;68.50;50.75;;;;;8.42;62.83;101606.97;6308879;22;45472;-49
2022/12/02 10:27:23;;;;;;;;;67.75;51.00;;;;;8.43;63.06;101606.09;6310233;22;45361;-47
2022/12/02 10:29:49;;;;;;;;;74.25;52.75;;;;;8.41;62.78;101597.34;6310019;22;45332;-46
2022/12/02 10:32:23;;;;;;;;;68.75;51.75;;;;;8.41;62.77;101603.44;6308391;22;45331;-49
2022/12/02 10:35:08;;;;;;;;;63.25;49.75;;;;;8.38;63.09;101592.09;6309723;22;45247;-46
2022/12/02 10:37:33;;;;;;;;;65.00;48.50;;;;;8.40;62.98;101593.84;6309933;22;45440;-49
2022/12/02 10:40:21;;;;;;;;;63.25;49.50;;;;;8.43;63.00;101591.25;6309521;22;45246;-48
2022/12/02 10:43:05;;;;;;;;;69.75;52.50;;;;;8.43;63.11;101595.63;6334698;22;45228;-49
2022/12/02 10:45:30;;;;;;;;;68.50;48.00;;;;;8.44;62.81;101582.53;6309736;22;45266;-50
2022/12/02 10:48:11;;;;;;;;;71.75;51.50;;;;;8.46;63.04;101585.19;6309905;22;45192;-49
2022/12/02 10:50:37;;;;;;;;;70.00;50.50;;;;;8.45;62.99;101584.28;6310090;22;45404;-49
2022/12/02 10:53:13;;;;;;;;;67.75;50.50;;;;;8.49;62.80;101584.34;6308372;22;45264;-48
2022/12/02 10:55:38;;;;;;;;;64.75;50.00;;;;;8.49;62.87;101581.72;6308696;22;45262;-48
2022/12/02 10:58:04;;;;;;;;;65.50;49.25;;;;;8.48;62.87;101572.09;6309790;22;46967;-47
2022/12/02 11:00:29;;;;;;;;;74.75;52.50;;;;;8.50;62.93;101570.38;6310445;22;45522;-49
2022/12/02 11:02:57;;;;;;;;;62.50;48.25;;;;;8.51;62.94;101561.66;6310565;22;45768;-47
2022/12/02 11:05:32;;;;;;;;;65.00;46.50;;;;;8.51;62.86;101559.91;6309926;22;45338;-48
2022/12/02 11:07:57;;;;;;;;;61.25;47.25;;;;;8.52;62.73;101561.66;6309670;22;45414;-51
2022/12/02 11:10:33;;;;;;;;;61.25;47.50;;;;;8.52;62.90;101563.41;6309846;22;45162;-47
2022/12/02 11:13:26;;;;;;;;;65.25;50.50;;;;;8.53;62.90;101555.56;6310207;22;45281;-48
2022/12/02 11:15:52;;;;;;;;;64.25;50.00;;;;;8.52;62.83;101550.31;6309804;22;45465;-51
2022/12/02 11:18:23;;;;;;;;;68.50;51.50;;;;;8.53;62.98;101547.69;6310168;22;46364;-49
2022/12/02 11:21:00;;;;;;;;;63.25;50.00;;;;;8.54;62.89;101544.22;6309894;22;45339;-49
2022/12/02 11:23:30;;;;;;;;;58.75;43.50;;;;;8.54;62.70;101548.56;6309870;22;45320;-48
2022/12/02 11:25:59;;;;;;;;;62.75;47.25;;;;;8.55;62.87;101545.97;6307912;22;45294;-45
2022/12/02 11:28:27;;;;;;;;;62.00;50.00;;;;;8.55;62.80;101548.59;6309466;22;46292;-50
2022/12/02 11:31:12;;;;;;;;;69.00;52.50;;;;;8.56;62.93;101545.09;6310332;22;45292;-47
2022/12/02 11:33:47;;;;;;;;;63.25;48.00;;;;;8.55;62.77;101540.75;6309865;22;45236;-49
2022/12/02 11:36:12;;;;;;;;;67.75;49.50;;;;;8.56;62.96;101534.59;6309504;22;45484;-49
2022/12/02 11:38:51;;;;;;;;;64.00;47.25;;;;;8.54;62.78;101525.88;6309183;22;46037;-48
2022/12/02 11:41:18;;;;;;;;;60.50;49.00;;;;;8.52;62.70;101522.38;6310071;22;45294;-49
2022/12/02 11:43:46;;;;;;;;;60.50;47.75;;;;;8.57;62.94;101528.50;6309515;22;45305;-49
2022/12/02 11:46:14;;;;;;;;;61.00;47.75;;;;;8.54;63.01;101518.03;6307996;22;45453;-48
2022/12/02 11:48:54;;;;;;;;;66.00;48.00;;;;;8.58;62.74;101526.78;6310084;22;46054;-47
2022/12/02 11:51:37;;;;;;;;;66.50;52.00;;;;;8.58;62.56;101527.66;6309532;22;45147;-49
2022/12/02 11:54:03;;;;;;;;;60.50;47.50;;;;;8.58;62.84;101518.94;6307889;22;45415;-49
2022/12/02 11:56:36;;;;;;;;;60.75;45.75;;;;;8.57;62.77;101511.91;6309781;22;45323;-47
2022/12/02 11:59:02;;;;;;;;;62.75;48.00;;;;;8.56;62.55;101504.94;6309442;22;46876;-47
2022/12/02 12:01:27;;;;;;;;;60.00;48.75;;;;;8.58;62.89;101511.06;6309696;22;45333;-46
2022/12/02 12:03:53;;;;;;;;;65.25;48.25;;;;;8.58;62.48;101501.44;6309647;22;45266;-47
2022/12/02 12:06:20;;;;;;;;;70.50;51.00;;;;;8.57;62.68;101493.59;6309445;22;45384;-45
2022/12/02 12:08:52;;;;;;;;;69.75;52.75;;;;;8.57;62.48;101493.59;6309661;22;45635;-46
2022/12/02 12:11:36;;;;;;;;;64.50;50.50;;;;;8.57;62.77;101493.59;6308954;22;45380;-48
2022/12/02 12:14:06;;;;;;;;;69.00;50.00;;;;;8.56;62.43;101492.69;6309862;22;45467;-49
2022/12/02 12:16:34;;;;;;;;;69.75;51.50;;;;;8.56;62.56;101489.22;6309975;22;45464;-47
2022/12/02 12:19:22;;;;;;;;;72.00;55.50;;;;;8.55;62.86;101476.97;6309457;22;45345;-50
2022/12/02 12:21:56;;;;;;;;;67.50;51.75;;;;;8.55;62.56;101477.88;6308715;22;45237;-48
2022/12/02 12:24:22;;;;;;;;;71.00;52.50;;;;;8.56;62.75;101470.88;6308379;22;45236;-48
2022/12/02 12:26:57;;;;;;;;;68.50;50.75;;;;;8.55;62.68;101456.91;6309625;22;45270;-47
2022/12/02 12:29:25;;;;;;;;;67.25;50.25;;;;;8.57;62.67;101464.75;6309680;22;45929;-50
2022/12/02 12:31:51;;;;;;;;;63.75;48.75;;;;;8.56;63.01;101460.38;6309414;22;45259;-48
2022/12/02 12:34:16;;;;;;;;;63.50;48.50;;;;;8.52;62.79;101453.38;6307421;22;45299;-47
2022/12/02 12:36:43;;;;;;;;;64.75;51.00;;;;;8.56;62.84;101455.16;6309466;22;45183;-45
2022/12/02 12:39:09;;;;;;;;;61.00;48.50;;;;;8.49;62.80;101443.78;6307110;22;45320;-45
2022/12/02 12:41:35;;;;;;;;;69.75;52.75;;;;;8.52;62.75;101442.91;6307769;22;45379;-46
2022/12/02 12:44:01;;;;;;;;;73.25;54.50;;;;;8.51;62.79;101444.63;6309551;22;45325;-47
2022/12/02 12:46:26;;;;;;;;;67.50;50.00;;;;;8.48;62.48;101442.00;6309776;22;45460;-46
2022/12/02 12:48:51;;;;;;;;;71.50;51.50;;;;;8.48;62.70;101444.63;6309517;22;45298;-46
2022/12/02 12:51:17;;;;;;;;;63.75;49.25;;;;;8.49;62.54;101440.25;6309348;22;45234;-47
2022/12/02 12:53:42;;;;;;;;;70.75;50.75;;;;;8.37;62.42;101415.72;6307579;22;45309;-46
2022/12/02 12:56:08;;;;;;;;;71.00;53.75;;;;;8.42;62.88;101419.22;6309180;22;45438;-46
2022/12/02 12:58:33;;;;;;;;;65.50;50.25;;;;;8.45;62.80;101427.13;6307756;22;45315;-46
2022/12/02 13:00:59;;;;;;;;;63.50;50.00;;;;;8.45;62.52;101427.13;6309405;22;45295;-47
2022/12/02 13:03:24;;;;;;;;;64.25;49.75;;;;;8.47;62.86;101411.44;6309452;22;45425;-48
2022/12/02 13:05:49;;;;;;;;;68.50;52.75;;;;;8.48;62.75;101415.81;6306790;22;45692;-46
2022/12/02 13:08:15;;;;;;;;;63.00;47.75;;;;;8.50;63.00;101415.81;6309320;22;45328;-46
2022/12/02 13:10:40;;;;;;;;;64.50;51.75;;;;;8.51;62.83;101415.81;6308993;22;45082;-46
2022/12/02 13:13:05;;;;;;;;;65.75;51.25;;;;;8.52;63.03;101421.94;6309238;22;45163;-48
2022/12/02 13:15:32;;;;;;;;;65.25;48.50;;;;;8.52;62.85;101414.09;6306890;22;45197;-47
2022/12/02 13:17:57;;;;;;;;;63.75;50.00;;;;;8.55;62.58;101412.38;6307847;22;45255;-50
2022/12/02 13:20:22;;;;;;;;;62.75;47.75;;;;;8.57;62.70;101417.59;6308969;22;45097;-49
2022/12/02 13:22:48;;;;;;;;;60.75;48.75;;;;;8.58;62.83;101414.13;6309476;22;45159;-47
2022/12/02 13:25:13;;;;;;;;;62.25;48.00;;;;;8.57;62.60;101404.50;6308673;22;45415;-49
2022/12/02 13:27:39;;;;;;;;;64.75;49.00;;;;;8.56;62.74;101401.00;6309225;22;45231;-49
2022/12/02 13:30:07;;;;;;;;;63.75;49.50;;;;;8.56;62.65;101392.28;6309209;22;45213;-47
2022/12/02 13:32:33;;;;;;;;;64.25;48.00;;;;;8.57;62.82;101399.28;6309081;22;45330;-47
2022/12/02 13:34:58;;;;;;;;;63.75;48.25;;;;;8.55;62.76;101401.88;6309716;22;45444;-49
2022/12/02 13:37:24;;;;;;;;;62.00;48.50;;;;;8.53;62.60;101389.63;6310402;22;45365;-46
2022/12/02 13:39:49;;;;;;;;;58.50;47.75;;;;;8.54;62.66;101388.75;6310789;22;45227;-46
2022/12/02 13:42:14;;;;;;;;;63.00;49.50;;;;;8.54;62.49;101383.53;6310779;22;45317;-47
2022/12/02 13:44:40;;;;;;;;;66.00;48.00;;;;;8.52;62.65;101387.91;6310565;22;45291;-46
2022/12/02 13:47:05;;;;;;;;;62.50;48.50;;;;;8.52;62.49;101383.53;6310358;22;46199;-47
2022/12/02 13:49:31;;;;;;;;;69.50;51.50;;;;;8.50;62.46;101374.75;6308494;22;45204;-51
2022/12/02 13:51:57;;;;;;;;;61.25;48.00;;;;;8.49;62.46;101378.28;6310819;22;45252;-47
2022/12/02 13:54:23;;;;;;;;;63.75;47.75;;;;;8.45;62.64;101374.72;6310804;22;45485;-47
2022/12/02 13:56:48;;;;;;;;;69.50;48.25;;;;;8.50;62.29;101381.75;6310476;22;45174;-47
2022/12/02 13:59:14;;;;;;;;;60.00;46.00;;;;;8.49;62.64;101385.25;6310632;22;45277;-46
2022/12/02 14:01:39;;;;;;;;;59.75;47.25;;;;;8.48;62.41;101383.50;6308443;22;45313;-47
2022/12/02 14:04:05;;;;;;;;;57.50;44.00;;;;;8.48;62.67;101370.38;6309859;22;45468;-46
2022/12/02 14:06:30;;;;;;;;;59.75;45.50;;;;;8.45;62.54;101372.13;6310221;22;46419;-50
2022/12/02 14:08:55;;;;;;;;;65.00;49.50;;;;;8.44;62.39;101364.25;6308674;22;45469;-48
2022/12/02 14:11:21;;;;;;;;;67.00;50.25;;;;;8.44;62.50;101351.16;6310605;22;45171;-45
2022/12/02 14:13:46;;;;;;;;;62.00;47.00;;;;;8.43;62.66;101346.78;6310264;22;45365;-49
2022/12/02 14:16:11;;;;;;;;;60.75;45.25;;;;;8.43;62.78;101344.16;6308312;22;47799;-47
2022/12/02 14:18:37;;;;;;;;;63.75;48.00;;;;;8.41;62.57;101346.75;6310630;22;45231;-46
2022/12/02 14:21:02;;;;;;;;;57.25;44.50;;;;;8.41;62.44;101349.38;6310156;22;46147;-47
2022/12/02 14:23:27;;;;;;;;;56.75;44.00;;;;;8.41;62.55;101346.75;6310316;22;45274;-49
2022/12/02 14:25:53;;;;;;;;;62.25;46.00;;;;;8.39;62.63;101353.75;6306438;22;47194;-46
2022/12/02 14:28:18;;;;;;;;;60.00;44.50;;;;;8.39;62.47;101351.13;6308989;22;45655;-47
2022/12/02 14:30:43;;;;;;;;;57.00;44.00;;;;;8.39;62.68;101351.13;6309066;22;45562;-48
2022/12/02 14:33:09;;;;;;;;;43.50;34.25;;;;;8.38;62.48;101351.13;6308947;22;45342;-51
2022/12/02 14:35:34;;;;;;;;;59.50;45.25;;;;;8.37;62.80;101358.09;6308057;22;46231;-50
2022/12/02 14:38:00;;;;;;;;;59.50;44.00;;;;;8.37;62.65;101352.84;6309175;22;45572;-46
2022/12/02 14:40:27;;;;;;;;;62.75;46.75;;;;;8.33;62.62;101347.59;6308698;22;45276;-46
2022/12/02 14:42:52;;;;;;;;;60.50;46.50;;;;;8.36;62.72;101348.47;6308796;22;45472;-47
2022/12/02 14:45:18;;;;;;;;;64.50;45.00;;;;;8.34;62.54;101342.38;6308320;22;45402;-47
2022/12/02 14:47:43;;;;;;;;;66.25;50.25;;;;;8.35;62.62;101352.00;6308520;22;45193;-47
2022/12/02 14:50:09;;;;;;;;;65.50;46.00;;;;;8.31;62.80;101339.72;6308657;22;45499;-47
2022/12/02 14:52:34;;;;;;;;;59.00;49.75;;;;;8.34;62.60;101338.88;6308780;22;45237;-47
2022/12/02 14:54:59;;;;;;;;;65.75;50.50;;;;;8.34;62.59;101351.97;6308046;22;46015;-49
2022/12/02 14:57:25;;;;;;;;;62.50;45.50;;;;;8.32;62.88;101338.88;6306839;22;45596;-48
2022/12/02 14:59:50;;;;;;;;;65.75;48.50;;;;;8.32;62.51;101336.25;6308905;22;45388;-49
2022/12/02 15:02:15;;;;;;;;;66.25;50.75;;;;;8.33;62.62;101347.59;6308652;22;45412;-47
2022/12/02 15:04:42;;;;;;;;;58.50;46.25;;;;;8.30;62.76;101337.97;6306098;22;45974;-45
2022/12/02 15:07:08;;;;;;;;;60.25;47.00;;;;;8.29;62.60;101338.88;6308742;22;45317;-46
2022/12/02 15:09:33;;;;;;;;;65.00;49.75;;;;;8.30;62.58;101341.47;6308491;22;45460;-45
2022/12/02 15:11:58;;;;;;;;;63.00;47.75;;;;;8.30;62.74;101348.44;6309790;22;45338;-46
2022/12/02 15:14:24;;;;;;;;;65.50;48.75;;;;;8.28;62.87;101339.72;6309603;22;45892;-46
2022/12/02 15:16:49;;;;;;;;;64.75;48.25;;;;;8.28;62.99;101345.81;6310140;22;45191;-47
2022/12/02 15:19:15;;;;;;;;;65.50;48.25;;;;;8.25;62.98;101335.34;6310127;22;45548;-48
2022/12/02 15:21:41;;;;;;;;;67.50;46.50;;;;;8.23;62.96;101336.22;6309790;22;45245;-47
2022/12/02 15:24:07;;;;;;;;;64.75;49.50;;;;;8.24;62.91;101344.06;6308303;22;45184;-49
2022/12/02 15:26:32;;;;;;;;;65.25;49.75;;;;;8.21;63.06;101332.69;6309952;22;45169;-46
2022/12/02 15:28:57;;;;;;;;;63.00;46.75;;;;;8.18;62.97;101332.69;6309528;22;45216;-47
2022/12/02 15:31:23;;;;;;;;;61.75;47.75;;;;;8.20;63.01;101337.06;6310112;22;45460;-47
2022/12/02 15:33:48;;;;;;;;;60.00;47.75;;;;;8.18;63.10;101335.31;6309845;22;45170;-49
2022/12/02 15:36:13;;;;;;;;;62.75;45.00;;;;;8.18;62.95;101333.56;6309856;22;45246;-48
2022/12/02 15:38:39;;;;;;;;;60.50;48.00;;;;;8.17;62.95;101333.56;6309732;22;45168;-45
2022/12/02 15:41:04;;;;;;;;;60.75;47.75;;;;;8.16;63.08;101331.81;6309383;22;45492;-45
2022/12/02 15:43:30;;;;;;;;;64.25;50.25;;;;;8.16;63.19;101327.44;6309940;22;45938;-49
2022/12/02 15:45:56;;;;;;;;;57.75;46.25;;;;;8.16;63.23;101330.06;6309934;22;45231;-47
2022/12/02 15:48:21;;;;;;;;;56.75;41.50;;;;;8.17;63.42;101325.72;6309600;22;45335;-47
2022/12/02 15:50:47;;;;;;;;;54.50;42.25;;;;;8.14;63.40;101322.19;6309385;22;45414;-46
2022/12/02 15:53:12;;;;;;;;;57.75;44.00;;;;;8.17;63.26;101328.31;6308424;22;46302;-46
2022/12/02 15:55:37;;;;;;;;;59.50;43.25;;;;;8.16;63.43;101327.44;6310175;22;45175;-49
2022/12/02 15:58:03;;;;;;;;;51.75;40.75;;;;;8.17;63.47;101330.94;6309509;22;45266;-47
2022/12/02 16:00:29;;;;;;;;;56.00;43.50;;;;;8.14;63.43;101330.06;6309957;22;45208;-47
2022/12/02 16:02:54;;;;;;;;;57.25;41.50;;;;;8.13;63.67;101336.16;6309508;22;46412;-48
2022/12/02 16:05:19;;;;;;;;;55.25;42.50;;;;;8.09;63.40;101342.25;6309364;22;45271;-46
2022/12/02 16:07:45;;;;;;;;;59.00;45.25;;;;;8.03;63.46;101329.13;6309646;22;45329;-46
2022/12/02 16:10:10;;;;;;;;;52.25;44.00;;;;;8.08;63.41;101342.25;6308745;22;45258;-45
2022/12/02 16:12:36;;;;;;;;;54.75;42.50;;;;;8.03;63.39;101334.34;6307483;22;45929;-50
2022/12/02 16:15:02;;;;;;;;;57.00;43.25;;;;;8.03;63.24;101342.22;6307247;22;45268;-47
2022/12/02 16:17:27;;;;;;;;;57.75;45.25;;;;;8.02;63.37;101348.31;6309426;22;45427;-46
2022/12/02 16:19:52;;;;;;;;;59.25;42.75;;;;;8.01;63.39;101343.06;6307176;22;45230;-47
2022/12/02 16:22:18;;;;;;;;;55.50;38.25;;;;;7.97;63.69;101335.22;6305300;22;45202;-45
2022/12/02 16:24:43;;;;;;;;;54.00;41.75;;;;;7.93;63.47;101329.94;6309122;22;45260;-47
2022/12/02 16:27:08;;;;;;;;;41.75;37.75;;;;;7.95;63.45;101341.31;6309997;22;46016;-48
2022/12/02 16:29:34;;;;;;;;;57.75;44.00;;;;;7.92;63.60;101343.88;6305162;22;45835;-49
2022/12/02 16:31:59;;;;;;;;;54.75;40.50;;;;;7.82;63.34;101329.84;6307021;22;45257;-48
2022/12/02 16:34:25;;;;;;;;;40.00;33.50;;;;;7.87;63.74;101346.47;6306960;22;45180;-46
2022/12/02 16:36:51;;;;;;;;;44.25;39.75;;;;;7.86;63.50;101343.84;6310022;22;45373;-47
2022/12/02 16:39:16;;;;;;;;;55.25;42.25;;;;;7.85;63.31;101344.69;6307549;22;45334;-47
2022/12/02 16:41:42;;;;;;;;;49.50;39.75;;;;;7.81;63.32;101349.94;6307281;22;45329;-46
2022/12/02 16:44:07;;;;;;;;;56.00;40.75;;;;;7.79;63.30;101351.66;6333191;22;45250;-46
2022/12/02 16:46:32;;;;;;;;;55.75;40.00;;;;;7.77;63.43;101360.34;6309715;22;45267;-46
2022/12/02 16:48:58;;;;;;;;;56.25;42.00;;;;;7.76;63.42;101351.63;6306520;22;45525;-47
2022/12/02 16:51:24;;;;;;;;;45.00;37.25;;;;;7.73;63.17;101351.59;6303432;22;45344;-46
2022/12/02 16:53:50;;;;;;;;;52.75;39.00;;;;;7.73;63.41;101350.72;6307509;22;45308;-48
2022/12/02 16:56:15;;;;;;;;;55.75;42.75;;;;;7.69;63.31;101344.59;6309522;22;45309;-46
2022/12/02 16:58:42;;;;;;;;;53.00;40.00;;;;;7.68;63.17;101353.31;6309593;22;45172;-47
2022/12/02 17:01:07;;;;;;;;;51.75;37.50;;;;;7.68;63.21;101358.53;6308792;22;46970;-46
2022/12/02 17:03:33;;;;;;;;;53.50;38.25;;;;;7.63;63.41;101350.69;6309216;22;45416;-48
2022/12/02 17:05:58;;;;;;;;;46.75;39.00;;;;;7.64;63.15;101351.53;6307115;22;45272;-46
2022/12/02 17:08:24;;;;;;;;;48.25;37.75;;;;;7.63;63.23;101352.41;6310299;22;45220;-49
2022/12/02 17:10:49;;;;;;;;;50.00;38.00;;;;;7.61;63.24;101346.25;6310698;22;45487;-46
2022/12/02 17:13:15;;;;;;;;;42.50;32.25;;;;;7.60;63.05;101352.38;6311326;22;45223;-47
2022/12/02 17:15:40;;;;;;;;;38.50;32.25;;;;;7.55;63.16;101348.88;6307787;22;45354;-49
2022/12/02 17:18:06;;;;;;;;;45.00;37.50;;;;;7.55;63.13;101351.47;6311359;22;45258;-47
2022/12/02 17:20:32;;;;;;;;;47.25;35.00;;;;;7.52;63.14;101354.94;6303219;22;47620;-46
2022/12/02 17:22:57;;;;;;;;;53.00;37.25;;;;;7.50;63.17;101361.91;6307493;22;45422;-48
2022/12/02 17:25:22;;;;;;;;;41.75;35.25;;;;;7.46;62.96;101350.53;6309250;22;45317;-47
2022/12/02 17:27:48;;;;;;;;;41.00;36.75;;;;;7.41;62.95;101341.78;6308977;22;45633;-47
2022/12/02 17:30:13;;;;;;;;;40.50;34.25;;;;;7.41;62.79;101341.78;6307802;22;46144;-45
2022/12/02 17:32:40;;;;;;;;;44.00;34.00;;;;;7.38;63.03;101346.94;6310031;22;45560;-46
2022/12/02 17:35:06;;;;;;;;;45.00;33.75;;;;;7.35;62.99;101352.16;6308802;22;45311;-46
2022/12/02 17:37:31;;;;;;;;;46.50;36.25;;;;;7.32;62.79;101350.41;6309606;22;45185;-46
2022/12/02 17:39:57;;;;;;;;;44.00;32.50;;;;;7.31;63.09;101358.25;6307932;22;46740;-48
2022/12/02 17:42:22;;;;;;;;;49.25;37.50;;;;;7.22;62.86;101337.22;6307616;22;45336;-45